createdAt,value
2023-05-15T00:00:20.262Z,68.57
2023-05-15T00:02:23.714Z,68.70
2023-05-15T00:04:27.193Z,68.84
2023-05-15T00:06:30.580Z,68.92
2023-05-15T00:08:34.003Z,69.07
2023-05-15T00:10:38.312Z,69.13
2023-05-15T00:12:42.824Z,69.28
2023-05-15T00:14:46.189Z,69.46
2023-05-15T00:16:50.999Z,69.58
2023-05-15T00:18:54.428Z,69.74
2023-05-15T00:20:57.752Z,69.98
2023-05-15T00:23:01.087Z,70.01
2023-05-15T00:25:04.662Z,70.07
2023-05-15T00:27:08.081Z,70.37
2023-05-15T00:29:13.536Z,70.56
2023-05-15T00:31:16.979Z,70.59
2023-05-15T00:33:21.774Z,70.71
2023-05-15T00:35:25.595Z,70.71
2023-05-15T00:37:29.160Z,71.04
2023-05-15T00:39:32.558Z,71.25
2023-05-15T00:41:37.898Z,71.56
2023-05-15T00:43:42.496Z,71.60
2023-05-15T00:45:47.395Z,71.87
2023-05-15T00:47:51.678Z,71.96
2023-05-15T00:49:58.096Z,71.91
2023-05-15T00:52:03.873Z,72.07
2023-05-15T00:54:08.380Z,72.12
2023-05-15T00:56:13.450Z,72.29
2023-05-15T00:58:18.320Z,72.38
2023-05-15T01:00:22.124Z,72.40
2023-05-15T01:02:25.573Z,72.63
2023-05-15T01:04:29.395Z,72.73
2023-05-15T01:06:34.480Z,72.84
2023-05-15T01:08:43.609Z,73.03
2023-05-15T01:10:49.653Z,73.11
2023-05-15T01:12:55.341Z,73.32
2023-05-15T01:14:58.876Z,73.27
2023-05-15T01:17:02.347Z,73.55
2023-05-15T01:19:06.177Z,73.68
2023-05-15T01:21:41.740Z,73.80
2023-05-15T01:23:59.843Z,74.07
2023-05-15T01:26:42.793Z,74.18
2023-05-15T01:28:53.219Z,74.31
2023-05-15T01:30:58.867Z,74.47
2023-05-15T01:33:09.535Z,74.36
2023-05-15T01:35:17.881Z,74.51
2023-05-15T01:37:25.918Z,74.58
2023-05-15T01:39:30.269Z,74.66
2023-05-15T01:41:42.524Z,74.75
2023-05-15T01:43:52.101Z,74.83
2023-05-15T01:45:57.264Z,75.10
2023-05-15T01:48:01.782Z,75.14
2023-05-15T01:50:07.605Z,75.20
2023-05-15T01:52:15.888Z,75.12
2023-05-15T01:54:20.727Z,75.26
2023-05-15T01:56:25.667Z,75.29
2023-05-15T01:58:30.110Z,75.23
2023-05-15T02:00:35.729Z,75.39
2023-05-15T02:02:39.639Z,75.40
2023-05-15T02:04:46.034Z,75.35
2023-05-15T02:06:50.756Z,75.42
2023-05-15T02:08:55.018Z,75.47
2023-05-15T02:11:00.809Z,75.36
2023-05-15T02:13:04.193Z,75.65
2023-05-15T02:15:10.362Z,75.62
2023-05-15T02:17:15.315Z,75.65
2023-05-15T02:19:18.681Z,75.73
2023-05-15T02:21:22.089Z,75.80
2023-05-15T02:23:25.417Z,75.99
2023-05-15T02:25:39.837Z,76.31
2023-05-15T02:27:49.573Z,76.34
2023-05-15T02:30:05.340Z,76.43
2023-05-15T02:32:19.981Z,76.54
2023-05-15T02:34:29.592Z,76.58
2023-05-15T02:36:37.475Z,76.85
2023-05-15T02:38:46.452Z,76.94
2023-05-15T02:40:51.401Z,77.18
2023-05-15T02:42:56.199Z,77.14
2023-05-15T02:44:59.830Z,77.27
2023-05-15T02:47:03.708Z,77.30
2023-05-15T02:49:09.256Z,77.37
2023-05-15T02:51:16.457Z,77.41
2023-05-15T02:53:19.867Z,77.47
2023-05-15T02:55:23.539Z,77.53
2023-05-15T02:57:27.283Z,77.57
2023-05-15T02:59:30.722Z,77.70
2023-05-15T03:01:34.084Z,77.71
2023-05-15T03:03:37.617Z,77.71
2023-05-15T03:05:42.770Z,77.86
2023-05-15T03:07:46.133Z,77.91
2023-05-15T03:09:49.804Z,77.88
2023-05-15T03:11:53.135Z,78.06
2023-05-15T03:13:56.581Z,78.11
2023-05-15T03:15:59.997Z,78.00
2023-05-15T03:18:03.445Z,78.14
2023-05-15T03:20:08.221Z,78.17
2023-05-15T03:22:12.968Z,78.23
2023-05-15T03:24:19.128Z,78.30
2023-05-15T03:26:22.503Z,78.39
2023-05-15T03:28:25.808Z,78.31
2023-05-15T03:30:29.329Z,78.26
2023-05-15T03:32:32.782Z,78.36
2023-05-15T03:34:37.107Z,78.40
2023-05-15T03:36:40.576Z,78.64
2023-05-15T03:38:45.373Z,78.66
2023-05-15T03:40:50.859Z,78.70
2023-05-15T03:42:54.553Z,78.77
2023-05-15T03:44:57.885Z,78.76
2023-05-15T03:47:01.353Z,78.96
2023-05-15T03:49:04.753Z,78.97
2023-05-15T03:51:10.884Z,78.90
2023-05-15T03:53:14.307Z,78.90
2023-05-15T03:55:19.349Z,78.92
2023-05-15T03:57:22.808Z,78.97
2023-05-15T03:59:26.137Z,78.93
2023-05-15T04:01:29.578Z,79.08
2023-05-15T04:03:32.950Z,79.21
2023-05-15T04:05:36.420Z,79.10
2023-05-15T04:07:40.096Z,79.27
2023-05-15T04:09:43.494Z,79.31
2023-05-15T04:11:48.202Z,79.27
2023-05-15T04:13:51.492Z,79.26
2023-05-15T04:15:55.272Z,79.25
2023-05-15T04:17:58.742Z,79.31
2023-05-15T04:20:02.153Z,79.33
2023-05-15T04:22:06.463Z,79.34
2023-05-15T04:24:09.930Z,79.55
2023-05-15T04:26:13.260Z,79.37
2023-05-15T04:28:19.855Z,79.29
2023-05-15T04:30:23.241Z,79.21
2023-05-15T04:32:27.734Z,79.15
2023-05-15T04:34:31.325Z,79.07
2023-05-15T04:36:35.057Z,79.29
2023-05-15T04:38:38.489Z,79.23
2023-05-15T04:40:41.791Z,79.16
2023-05-15T04:42:45.167Z,79.11
2023-05-15T04:44:49.972Z,78.94
2023-05-15T04:46:53.319Z,78.81
2023-05-15T04:48:56.671Z,78.77
2023-05-15T04:51:00.107Z,78.71
2023-05-15T04:53:03.754Z,78.65
2023-05-15T04:55:08.303Z,78.62
2023-05-15T04:57:11.631Z,78.64
2023-05-15T04:59:15.991Z,78.49
2023-05-15T05:01:20.747Z,78.28
2023-05-15T05:03:24.277Z,77.98
2023-05-15T05:05:27.662Z,77.72
2023-05-15T05:07:30.970Z,77.92
2023-05-15T05:09:34.396Z,77.77
2023-05-15T05:11:39.274Z,77.42
2023-05-15T05:13:42.660Z,77.43
2023-05-15T05:15:46.300Z,77.17
2023-05-15T05:17:51.499Z,77.01
2023-05-15T05:19:54.784Z,76.97
2023-05-15T05:22:01.445Z,76.77
2023-05-15T05:24:05.017Z,76.47
2023-05-15T05:26:08.423Z,76.33
2023-05-15T05:28:11.770Z,76.17
2023-05-15T05:30:15.535Z,75.96
2023-05-15T05:32:18.887Z,75.57
2023-05-15T05:34:23.891Z,75.26
2023-05-15T05:36:27.182Z,75.03
2023-05-15T05:38:30.488Z,74.71
2023-05-15T05:40:33.851Z,74.26
2023-05-15T05:42:37.169Z,73.93
2023-05-15T05:44:40.458Z,73.57
2023-05-15T05:46:45.338Z,73.22
2023-05-15T05:48:48.714Z,72.85
2023-05-15T05:50:53.559Z,72.64
2023-05-15T05:52:56.878Z,72.06
2023-05-15T05:55:00.283Z,71.51
2023-05-15T05:57:03.644Z,71.11
2023-05-15T05:59:07.183Z,70.64
2023-05-15T06:01:10.613Z,70.38
2023-05-15T06:03:14.120Z,70.19
2023-05-15T06:05:17.627Z,69.85
2023-05-15T06:07:25.897Z,69.66
2023-05-15T06:09:29.445Z,69.59
2023-05-15T06:11:33.913Z,68.82
2023-05-15T06:13:37.732Z,68.65
2023-05-15T06:15:41.186Z,68.21
2023-05-15T06:17:44.652Z,68.02
2023-05-15T06:19:48.037Z,67.80
2023-05-15T06:21:51.388Z,67.33
2023-05-15T06:23:56.876Z,67.04
2023-05-15T06:26:01.789Z,66.39
2023-05-15T06:28:05.558Z,65.88
2023-05-15T06:30:10.084Z,65.44
2023-05-15T06:32:13.394Z,64.88
2023-05-15T06:34:16.768Z,63.73
2023-05-15T06:36:20.130Z,63.60
2023-05-15T06:38:23.738Z,63.80
2023-05-15T06:40:28.649Z,63.38
2023-05-15T06:42:32.318Z,62.67
2023-05-15T06:44:35.951Z,62.42
2023-05-15T06:46:39.475Z,62.04
2023-05-15T06:48:43.045Z,61.36
2023-05-15T06:50:46.454Z,61.16
2023-05-15T06:52:49.795Z,60.74
2023-05-15T06:54:53.201Z,60.58
2023-05-15T06:56:57.914Z,60.19
2023-05-15T06:59:01.382Z,59.33
2023-05-15T07:01:06.508Z,59.10
2023-05-15T07:03:10.082Z,58.95
2023-05-15T07:05:13.467Z,58.95
2023-05-15T07:07:16.901Z,58.55
2023-05-15T07:09:20.391Z,57.94
2023-05-15T07:11:23.649Z,57.78
2023-05-15T07:13:28.598Z,57.17
2023-05-15T07:15:31.995Z,56.86
2023-05-15T07:17:35.615Z,56.59
2023-05-15T07:19:39.043Z,56.18
2023-05-15T07:21:42.471Z,55.68
2023-05-15T07:23:45.864Z,55.39
2023-05-15T07:25:49.952Z,55.64
2023-05-15T07:27:53.467Z,54.27
2023-05-15T07:29:58.221Z,54.23
2023-05-15T07:32:03.994Z,53.18
2023-05-15T07:34:07.508Z,52.39
2023-05-15T07:36:11.009Z,52.45
2023-05-15T07:38:14.485Z,51.47
2023-05-15T07:40:18.039Z,51.30
2023-05-15T07:42:21.367Z,50.73
2023-05-15T07:44:24.678Z,50.19
2023-05-15T07:46:30.254Z,49.79
2023-05-15T07:48:33.743Z,48.99
2023-05-15T07:50:37.106Z,48.27
2023-05-15T07:52:40.631Z,48.01
2023-05-15T07:54:44.132Z,47.76
2023-05-15T07:56:47.773Z,47.22
2023-05-15T07:58:51.398Z,46.95
2023-05-15T08:00:54.937Z,46.74
2023-05-15T08:03:00.805Z,46.99
2023-05-15T08:05:04.588Z,46.71
2023-05-15T08:07:08.467Z,46.82
2023-05-15T08:09:12.871Z,45.81
2023-05-15T08:11:16.349Z,45.49
2023-05-15T08:13:19.769Z,44.74
2023-05-15T08:15:23.915Z,44.90
2023-05-15T08:17:27.537Z,44.38
2023-05-15T08:19:32.336Z,44.35
2023-05-15T08:21:35.714Z,43.85
2023-05-15T08:23:39.077Z,43.75
2023-05-15T08:25:42.802Z,43.19
2023-05-15T08:27:46.289Z,42.58
2023-05-15T08:29:49.656Z,42.64
2023-05-15T08:31:53.418Z,42.05
2023-05-15T08:33:56.771Z,41.74
2023-05-15T08:36:01.627Z,42.29
2023-05-15T08:38:05.070Z,41.78
2023-05-15T08:40:09.547Z,41.95
2023-05-15T08:42:21.287Z,41.48
2023-05-15T08:44:25.277Z,41.54
2023-05-15T08:46:29.700Z,41.57
2023-05-15T08:48:37.982Z,41.11
2023-05-15T08:50:43.617Z,40.84
2023-05-15T08:52:49.071Z,40.87
2023-05-15T08:54:53.028Z,40.96
2023-05-15T08:56:56.548Z,40.43
2023-05-15T08:59:00.389Z,39.93
2023-05-15T09:01:04.653Z,39.19
2023-05-15T09:03:08.293Z,39.07
2023-05-15T09:05:12.156Z,39.08
2023-05-15T09:07:16.394Z,39.15
2023-05-15T09:09:21.963Z,39.48
2023-05-15T09:11:25.802Z,39.27
2023-05-15T09:13:29.253Z,39.47
2023-05-15T09:15:33.957Z,38.64
2023-05-15T09:17:37.371Z,38.18
2023-05-15T09:19:41.283Z,38.39
2023-05-15T09:21:44.652Z,38.46
2023-05-15T09:23:48.439Z,37.85
2023-05-15T09:25:57.171Z,37.81
2023-05-15T09:28:03.821Z,38.18
2023-05-15T09:30:14.705Z,37.75
2023-05-15T09:32:19.956Z,38.23
2023-05-15T09:34:30.688Z,38.13
2023-05-15T09:36:34.155Z,37.61
2023-05-15T09:38:43.389Z,37.83
2023-05-15T09:40:47.214Z,37.77
2023-05-15T09:42:54.448Z,37.40
2023-05-15T09:44:57.950Z,36.91
2023-05-15T09:47:02.249Z,37.00
2023-05-15T09:49:07.214Z,37.02
2023-05-15T09:51:16.903Z,36.17
2023-05-15T09:53:21.394Z,35.60
2023-05-15T09:55:25.458Z,35.53
2023-05-15T09:57:30.450Z,34.97
2023-05-15T09:59:35.709Z,34.83
2023-05-15T10:01:39.251Z,34.73
2023-05-15T10:03:43.911Z,34.12
2023-05-15T10:05:48.001Z,34.32
2023-05-15T10:07:55.849Z,34.08
2023-05-15T10:09:59.723Z,33.10
2023-05-15T10:12:04.382Z,32.68
2023-05-15T10:14:11.906Z,32.20
2023-05-15T10:16:17.379Z,32.02
2023-05-15T10:18:25.082Z,31.36
2023-05-15T10:20:28.662Z,31.55
2023-05-15T10:22:33.645Z,31.62
2023-05-15T10:24:39.723Z,31.50
2023-05-15T10:26:44.336Z,31.30
2023-05-15T10:28:47.889Z,30.87
2023-05-15T10:30:52.006Z,30.45
2023-05-15T10:32:57.165Z,30.11
2023-05-15T10:35:01.329Z,30.74
2023-05-15T10:37:06.266Z,31.15
2023-05-15T10:39:09.840Z,30.36
2023-05-15T10:41:17.334Z,31.01
2023-05-15T10:43:22.320Z,30.70
2023-05-15T10:45:26.525Z,31.16
2023-05-15T10:47:31.319Z,31.52
2023-05-15T10:49:36.450Z,31.35
2023-05-15T10:51:40.846Z,31.10
2023-05-15T10:53:44.824Z,31.23
2023-05-15T10:55:50.020Z,30.68
2023-05-15T10:57:55.020Z,30.34
2023-05-15T10:59:58.662Z,30.40
2023-05-15T11:02:23.583Z,29.99
2023-05-15T11:04:27.660Z,29.88
2023-05-15T11:06:32.473Z,31.17
2023-05-15T11:08:36.648Z,30.85
2023-05-15T11:10:40.509Z,30.19
2023-05-15T11:13:00.028Z,30.46
2023-05-15T11:15:22.296Z,30.32
2023-05-15T11:17:25.860Z,29.96
2023-05-15T11:19:36.006Z,29.47
2023-05-15T11:21:47.921Z,29.37
2023-05-15T11:24:05.636Z,29.21
2023-05-15T11:26:09.139Z,29.84
2023-05-15T11:28:23.210Z,29.44
2023-05-15T11:30:37.369Z,29.54
2023-05-15T11:33:02.125Z,29.53
2023-05-15T11:35:05.794Z,29.62
2023-05-15T11:37:19.364Z,29.54
2023-05-15T11:39:25.323Z,29.65
2023-05-15T11:41:33.238Z,29.97
2023-05-15T11:43:37.611Z,30.06
2023-05-15T11:45:41.957Z,30.11
2023-05-15T11:47:45.536Z,30.28
2023-05-15T11:49:49.722Z,30.73
2023-05-15T11:51:56.279Z,30.43
2023-05-15T11:54:03.311Z,30.40
2023-05-15T11:56:07.245Z,30.12
2023-05-15T11:58:15.089Z,30.88
2023-05-15T12:00:19.188Z,30.48
2023-05-15T12:02:22.746Z,30.54
2023-05-15T12:04:26.279Z,31.19
2023-05-15T12:06:29.847Z,31.97
2023-05-15T12:08:34.380Z,32.36
2023-05-15T12:10:43.787Z,33.27
2023-05-15T12:12:48.150Z,33.94
2023-05-15T12:14:51.566Z,35.10
2023-05-15T12:16:57.837Z,34.49
2023-05-15T12:19:01.391Z,34.14
2023-05-15T12:21:06.082Z,34.43
2023-05-15T12:23:09.740Z,34.88
2023-05-15T12:25:14.365Z,35.76
2023-05-15T12:27:19.718Z,36.47
2023-05-15T12:29:23.126Z,37.15
2023-05-15T12:31:26.631Z,37.87
2023-05-15T12:33:30.029Z,38.56
2023-05-15T12:35:35.686Z,38.51
2023-05-15T12:37:39.820Z,39.18
2023-05-15T12:39:52.969Z,39.61
2023-05-15T12:41:59.343Z,39.94
2023-05-15T12:44:04.087Z,40.43
2023-05-15T12:46:07.460Z,41.00
2023-05-15T12:48:15.691Z,41.55
2023-05-15T12:50:19.945Z,41.76
2023-05-15T12:52:23.370Z,42.16
2023-05-15T12:54:26.906Z,42.62
2023-05-15T12:56:31.205Z,42.67
2023-05-15T12:58:35.092Z,43.28
2023-05-15T13:00:41.960Z,42.89
2023-05-15T13:02:46.277Z,43.46
2023-05-15T13:04:49.806Z,43.49
2023-05-15T13:06:54.133Z,44.33
2023-05-15T13:08:57.462Z,44.84
2023-05-15T13:11:01.658Z,45.30
2023-05-15T13:13:05.083Z,45.93
2023-05-15T13:15:09.515Z,46.94
2023-05-15T13:17:16.153Z,47.10
2023-05-15T13:19:19.622Z,47.66
2023-05-15T13:21:23.038Z,47.43
2023-05-15T13:23:26.302Z,47.63
2023-05-15T13:25:31.895Z,48.05
2023-05-15T13:27:35.556Z,48.30
2023-05-15T13:29:38.893Z,48.27
2023-05-15T13:31:42.289Z,48.26
2023-05-15T13:33:47.081Z,48.29
2023-05-15T13:35:50.386Z,48.28
2023-05-15T13:37:53.721Z,48.93
2023-05-15T13:39:57.006Z,48.99
2023-05-15T13:42:00.849Z,48.69
2023-05-15T13:44:04.214Z,48.58
2023-05-15T13:46:07.511Z,48.87
2023-05-15T13:48:10.915Z,48.46
2023-05-15T13:50:16.967Z,48.67
2023-05-15T13:52:20.404Z,49.10
2023-05-15T13:54:23.751Z,48.73
2023-05-15T13:56:27.069Z,48.89
2023-05-15T13:58:30.651Z,49.32
2023-05-15T14:00:34.078Z,49.11
2023-05-15T14:02:37.578Z,49.57
2023-05-15T14:04:41.061Z,49.53
2023-05-15T14:06:46.139Z,49.46
2023-05-15T14:08:49.417Z,49.56
2023-05-15T14:10:52.740Z,49.73
2023-05-15T14:12:56.175Z,49.81
2023-05-15T14:14:59.860Z,50.04
2023-05-15T14:17:03.234Z,50.11
2023-05-15T14:19:06.756Z,50.65
2023-05-15T14:21:10.187Z,51.17
2023-05-15T14:23:15.575Z,51.15
2023-05-15T14:25:18.936Z,51.22
2023-05-15T14:27:22.354Z,51.65
2023-05-15T14:29:25.887Z,51.50
2023-05-15T14:31:29.189Z,51.82
2023-05-15T14:33:32.513Z,52.09
2023-05-15T14:35:35.843Z,52.50
2023-05-15T14:37:39.141Z,52.45
2023-05-15T14:39:44.026Z,52.77
2023-05-15T14:41:47.492Z,52.90
2023-05-15T14:43:50.785Z,53.24
2023-05-15T14:45:54.174Z,53.39
2023-05-15T14:47:57.548Z,53.80
2023-05-15T14:50:00.914Z,54.17
2023-05-15T14:52:04.989Z,54.38
2023-05-15T14:54:08.453Z,54.44
2023-05-15T14:56:13.719Z,54.24
2023-05-15T14:58:17.277Z,54.21
2023-05-15T15:00:20.778Z,53.75
2023-05-15T15:02:24.195Z,53.91
2023-05-15T15:04:29.179Z,53.95
2023-05-15T15:06:32.561Z,53.20
2023-05-15T15:08:35.887Z,51.53
2023-05-15T15:10:40.841Z,50.37
2023-05-15T15:12:46.535Z,50.28
2023-05-15T15:14:49.840Z,50.18
2023-05-15T15:16:53.209Z,50.36
2023-05-15T15:18:56.599Z,50.33
2023-05-15T15:20:59.931Z,50.51
2023-05-15T15:23:04.507Z,50.71
2023-05-15T15:25:08.438Z,50.90
2023-05-15T15:27:11.790Z,50.99
2023-05-15T15:29:16.511Z,51.56
2023-05-15T15:31:21.045Z,51.57
2023-05-15T15:33:24.528Z,52.01
2023-05-15T15:35:27.979Z,52.00
2023-05-15T15:37:32.571Z,51.82
2023-05-15T15:39:35.859Z,52.02
2023-05-15T15:41:39.913Z,51.54
2023-05-15T15:43:43.309Z,51.57
2023-05-15T15:45:48.001Z,51.64
2023-05-15T15:47:51.427Z,52.17
2023-05-15T15:49:54.898Z,51.75
2023-05-15T15:51:58.272Z,51.67
2023-05-15T15:54:01.600Z,51.84
2023-05-15T15:56:06.294Z,52.28
2023-05-15T15:58:09.643Z,52.91
2023-05-15T16:00:13.999Z,53.20
2023-05-15T16:02:19.062Z,52.95
2023-05-15T16:04:22.934Z,53.50
2023-05-15T16:06:26.240Z,53.46
2023-05-15T16:08:29.569Z,54.01
2023-05-15T16:10:33.019Z,54.35
2023-05-15T16:12:36.556Z,55.04
2023-05-15T16:14:39.898Z,54.97
2023-05-15T16:16:43.199Z,55.66
2023-05-15T16:18:47.997Z,55.43
2023-05-15T16:20:51.337Z,56.02
2023-05-15T16:22:54.665Z,56.33
2023-05-15T16:24:57.976Z,56.53
2023-05-15T16:27:01.268Z,56.66
2023-05-15T16:29:04.692Z,56.71
2023-05-15T16:31:08.170Z,57.30
2023-05-15T16:33:11.715Z,57.53
2023-05-15T16:35:16.490Z,57.21
2023-05-15T16:37:19.853Z,57.51
2023-05-15T16:39:23.409Z,57.63
2023-05-15T16:41:26.911Z,57.38
2023-05-15T16:43:30.238Z,57.29
2023-05-15T16:45:33.540Z,57.45
2023-05-15T16:47:38.911Z,57.01
2023-05-15T16:49:44.261Z,56.76
2023-05-15T16:51:49.632Z,57.22
2023-05-15T16:53:53.931Z,56.98
2023-05-15T16:55:57.285Z,56.96
2023-05-15T16:58:00.824Z,57.00
2023-05-15T17:00:04.714Z,57.10
2023-05-15T17:02:10.039Z,56.79
2023-05-15T17:04:13.535Z,57.24
2023-05-15T17:06:17.229Z,57.12
2023-05-15T17:08:21.925Z,57.22
2023-05-15T17:10:25.824Z,57.82
2023-05-15T17:12:29.302Z,57.86
2023-05-15T17:14:32.569Z,57.46
2023-05-15T17:16:36.237Z,57.67
2023-05-15T17:18:40.385Z,57.62
2023-05-15T17:20:43.780Z,57.50
2023-05-15T17:22:47.032Z,57.42
2023-05-15T17:24:52.944Z,57.71
2023-05-15T17:26:56.385Z,57.85
2023-05-15T17:28:59.661Z,57.71
2023-05-15T17:31:10.472Z,58.02
2023-05-15T17:33:13.777Z,57.70
2023-05-15T17:35:17.081Z,57.83
2023-05-15T17:37:20.433Z,58.02
2023-05-15T17:39:23.739Z,57.66
2023-05-15T17:41:28.464Z,57.75
2023-05-15T17:43:31.880Z,57.36
2023-05-15T17:45:35.192Z,57.55
2023-05-15T17:47:38.521Z,57.47
2023-05-15T17:49:42.096Z,57.56
2023-05-15T17:51:45.405Z,57.99
2023-05-15T17:53:49.049Z,57.78
2023-05-15T17:55:52.402Z,58.08
2023-05-15T17:57:57.032Z,58.54
2023-05-15T18:00:00.282Z,58.62
2023-05-15T18:02:03.791Z,58.96
2023-05-15T18:04:07.448Z,59.12
2023-05-15T18:06:13.498Z,59.41
2023-05-15T18:08:16.824Z,60.11
2023-05-15T18:10:20.202Z,59.79
2023-05-15T18:12:25.068Z,60.11
2023-05-15T18:14:30.607Z,60.36
2023-05-15T18:16:34.237Z,60.58
2023-05-15T18:18:37.855Z,60.85
2023-05-15T18:20:41.836Z,61.04
2023-05-15T18:22:46.184Z,61.93
2023-05-15T18:24:49.585Z,62.35
2023-05-15T18:26:53.039Z,63.18
2023-05-15T18:28:56.528Z,63.54
2023-05-15T18:31:01.331Z,63.83
2023-05-15T18:33:04.888Z,64.04
2023-05-15T18:35:08.928Z,64.36
2023-05-15T18:37:12.199Z,64.85
2023-05-15T18:39:15.940Z,64.75
2023-05-15T18:41:19.201Z,65.26
2023-05-15T18:43:22.772Z,65.40
2023-05-15T18:45:28.710Z,65.74
2023-05-15T18:47:33.508Z,65.48
2023-05-15T18:49:36.907Z,65.79
2023-05-15T18:51:40.211Z,65.95
2023-05-15T18:53:43.763Z,66.32
2023-05-15T18:55:47.220Z,66.43
2023-05-15T18:57:50.516Z,66.72
2023-05-15T18:59:54.927Z,67.00
2023-05-15T19:01:58.314Z,67.04
2023-05-15T19:04:03.967Z,67.51
2023-05-15T19:06:07.500Z,67.65
2023-05-15T19:08:10.856Z,67.93
2023-05-15T19:10:14.353Z,67.95
2023-05-15T19:12:17.732Z,68.17
2023-05-15T19:14:21.142Z,68.21
2023-05-15T19:16:26.981Z,68.54
2023-05-15T19:18:30.437Z,68.64
2023-05-15T19:20:35.502Z,68.95
2023-05-15T19:22:38.887Z,69.11
2023-05-15T19:24:42.381Z,69.21
2023-05-15T19:26:45.710Z,69.35
2023-05-15T19:28:48.975Z,69.48
2023-05-15T19:30:52.260Z,69.56
2023-05-15T19:32:55.775Z,69.57
2023-05-15T19:34:59.109Z,69.70
2023-05-15T19:37:03.801Z,69.93
2023-05-15T19:39:07.109Z,70.04
2023-05-15T19:41:11.096Z,70.28
2023-05-15T19:43:15.254Z,70.33
2023-05-15T19:45:18.632Z,70.47
2023-05-15T19:47:22.024Z,70.57
2023-05-15T19:49:25.355Z,70.77
2023-05-15T19:51:28.686Z,70.67
2023-05-15T19:53:33.403Z,70.94
2023-05-15T19:55:36.719Z,71.10
2023-05-15T19:57:44.916Z,71.32
2023-05-15T19:59:48.423Z,71.37
2023-05-15T20:01:51.767Z,71.53
2023-05-15T20:03:55.366Z,71.84
2023-05-15T20:05:58.999Z,72.09
2023-05-15T20:08:02.384Z,71.99
2023-05-15T20:10:09.203Z,72.07
2023-05-15T20:12:12.520Z,72.39
2023-05-15T20:14:16.167Z,72.52
2023-05-15T20:16:19.506Z,72.43
2023-05-15T20:18:23.658Z,72.46
2023-05-15T20:20:27.249Z,72.49
2023-05-15T20:22:31.521Z,72.57
2023-05-15T20:24:34.844Z,72.80
2023-05-15T20:26:39.584Z,73.19
2023-05-15T20:28:45.165Z,73.10
2023-05-15T20:30:49.195Z,73.31
2023-05-15T20:32:52.684Z,73.30
2023-05-15T20:34:56.296Z,73.29
2023-05-15T20:36:59.698Z,73.45
2023-05-15T20:39:07.216Z,73.58
2023-05-15T20:41:10.711Z,73.70
2023-05-15T20:43:15.462Z,73.78
2023-05-15T20:45:19.139Z,74.04
2023-05-15T20:47:22.539Z,73.99
2023-05-15T20:49:25.850Z,74.05
2023-05-15T20:51:29.092Z,74.05
2023-05-15T20:53:32.425Z,74.06
2023-05-15T20:55:36.145Z,74.23
2023-05-15T20:57:41.603Z,74.18
2023-05-15T20:59:49.092Z,74.21
2023-05-15T21:01:52.634Z,74.37
2023-05-15T21:03:56.091Z,74.06
2023-05-15T21:05:59.603Z,74.27
2023-05-15T21:08:03.386Z,74.40
2023-05-15T21:10:07.744Z,74.40
2023-05-15T21:12:12.341Z,74.35
2023-05-15T21:14:15.911Z,74.48
2023-05-15T21:16:20.690Z,74.45
2023-05-15T21:18:24.028Z,74.29
2023-05-15T21:20:27.666Z,74.33
2023-05-15T21:22:31.301Z,74.43
2023-05-15T21:24:34.597Z,74.33
2023-05-15T21:26:37.910Z,74.34
2023-05-15T21:28:41.414Z,74.22
2023-05-15T21:30:45.012Z,73.98
2023-05-15T21:32:49.968Z,74.06
2023-05-15T21:34:53.465Z,73.96
2023-05-15T21:36:57.088Z,74.01
2023-05-15T21:39:00.502Z,73.84
2023-05-15T21:41:03.891Z,73.84
2023-05-15T21:43:07.299Z,73.91
2023-05-15T21:45:11.210Z,73.61
2023-05-15T21:47:14.638Z,73.47
2023-05-15T21:49:19.701Z,73.50
2023-05-15T21:51:23.601Z,73.28
2023-05-15T21:53:27.140Z,73.40
2023-05-15T21:55:30.892Z,73.28
2023-05-15T21:57:34.307Z,73.49
2023-05-15T21:59:38.182Z,73.54
2023-05-15T22:01:42.449Z,73.70
2023-05-15T22:03:46.293Z,73.77
2023-05-15T22:05:53.001Z,73.54
2023-05-15T22:07:57.218Z,73.81
2023-05-15T22:10:03.156Z,73.72
2023-05-15T22:12:07.996Z,73.87
2023-05-15T22:14:11.586Z,73.81
2023-05-15T22:16:15.135Z,73.69
2023-05-15T22:18:18.547Z,73.70
2023-05-15T22:20:22.381Z,73.56
2023-05-15T22:22:27.204Z,73.34
2023-05-15T22:24:30.543Z,73.41
2023-05-15T22:26:34.477Z,73.81
2023-05-15T22:28:37.784Z,73.38
2023-05-15T22:30:41.233Z,73.36
2023-05-15T22:32:45.368Z,73.55
2023-05-15T22:34:48.743Z,73.61
2023-05-15T22:38:56.919Z,73.47
2023-05-15T22:41:00.336Z,73.51
2023-05-15T22:43:03.952Z,73.58
2023-05-15T22:45:08.434Z,73.65
2023-05-15T22:47:12.079Z,73.62
2023-05-15T22:49:19.320Z,73.62
2023-05-15T22:51:23.640Z,73.58
2023-05-15T22:53:27.299Z,73.70
2023-05-15T22:55:32.152Z,73.65
2023-05-15T22:57:35.751Z,73.62
2023-05-15T22:59:39.129Z,73.51
2023-05-15T23:01:43.204Z,73.64
2023-05-15T23:03:46.664Z,73.62
2023-05-15T23:05:50.375Z,73.69
2023-05-15T23:07:54.185Z,73.80
2023-05-15T23:09:57.533Z,73.77
2023-05-15T23:12:02.342Z,73.74
2023-05-15T23:14:05.842Z,73.79
2023-05-15T23:16:09.914Z,73.65
2023-05-15T23:18:13.471Z,73.50
2023-05-15T23:20:17.043Z,73.77
2023-05-15T23:22:20.265Z,73.72
2023-05-15T23:24:23.548Z,73.76
2023-05-15T23:26:27.129Z,73.72
2023-05-15T23:28:31.751Z,73.80
2023-05-15T23:30:35.031Z,73.65
2023-05-15T23:32:38.286Z,73.64
2023-05-15T23:34:41.565Z,73.76
2023-05-15T23:36:44.775Z,73.83
2023-05-15T23:38:47.977Z,73.81
2023-05-15T23:40:52.637Z,73.69
2023-05-15T23:42:56.813Z,73.62
2023-05-15T23:45:01.649Z,73.56
2023-05-15T23:47:05.728Z,73.56
2023-05-15T23:49:09.405Z,73.49
2023-05-15T23:51:12.605Z,73.50
2023-05-15T23:53:15.799Z,73.46
2023-05-15T23:55:19.036Z,73.42
2023-05-15T23:57:22.291Z,73.44
2023-05-15T23:59:25.599Z,73.42
